Flight Track Log - Related Links

Times and Time Zones

All times are in EST time to prevent confusion due to time zone crossing. See the GJS3618 flight status page for this flight to view local times or setup timezone preferences in your user account.


Time Position Orientation Groundspeed Altitude Reporting Facility
EST Latitude Longitude Course Direction KTS MPH feet Rate Location/Type
Sun 01:46:19 PM 39.8833 -104.5833 79° East 183 211 7,000  Level Denver TRACON
Sun 01:47:19 PM 39.9000 -104.5000 75° East 237 273 8,900 1,756 Climbing Denver TRACON
Sun 01:48:00 PM 39.9387 -104.1714 73° East  Level FlightAware Approximate
Sun 01:49:00 PM 39.9667 -104.0066 90° East  Level FlightAware Approximate
Sun 01:49:44 PM 39.9353 -104.2681 79° East 307 353 13,000  Level Denver Center
Sun 01:50:00 PM 39.9963 -103.8424 79° East  Level FlightAware Approximate
Sun 01:50:46 PM 39.9558 -104.1478 77° East 338 389 14,400  Level Denver Center
Sun 01:51:00 PM 40.0293 -103.6786 79° East  Level FlightAware Approximate
Sun 01:51:48 PM 39.9800 -104.0047 78° East 374 430 15,700  Level Denver Center
Sun 01:52:50 PM 40.0036 -103.8661 77° East 388 447 16,900 1,024 Climbing Denver Center
Sun 01:53:51 PM 40.0264 -103.7419 76° East 412 474 17,800 1,065 Climbing Denver Center
Sun 01:54:54 PM 40.0558 -103.5614 78° East 418 481 19,100 1,104 Climbing Denver Center
Sun 01:55:56 PM 40.0800 -103.4058 78° East 435 501 20,100 1,016 Climbing Denver Center
Sun 01:56:58 PM 40.1072 -103.2475 77° East 446 513 21,200 1,016 Climbing Denver Center
Sun 01:58:00 PM 40.1328 -103.0847 78° East 456 525 22,200 971 Climbing Denver Center
Sun 01:59:14 PM 40.1633 -102.8892 78° East 458 527 23,400 966 Climbing Denver Center
Sun 02:00:29 PM 40.1928 -102.6897 79° East 465 535 24,600 1,007 Climbing Denver Center
Sun 02:01:31 PM 40.2197 -102.5133 79° East 466 536 25,700 1,065 Climbing Denver Center
Sun 02:02:33 PM 40.2492 -102.3294 78° East 463 533 26,800 971 Climbing Denver Center
Sun 02:03:47 PM 40.2850 -102.1483 75° East 459 528 27,900 1,051 Climbing Denver Center
Sun 02:04:50 PM 40.3464 -101.9500 68° East 459 528 29,200 1,056 Climbing Denver Center
Sun 02:05:52 PM 40.3911 -101.8008 68° East 460 529 30,100 871 Climbing Denver Center
Sun 02:06:54 PM 40.4461 -101.6278 67° East 461 531 31,000 774 Climbing Denver Center
Sun 02:07:56 PM 40.4917 -101.4769 68° East 464 534 31,700 726 Climbing Denver Center
Sun 02:08:58 PM 40.5503 -101.3356 61° Northeast 461 531 32,500 677 Climbing Denver Center
Sun 02:10:00 PM 40.6289 -101.1781 57° Northeast 461 531 33,100 532 Climbing Denver Center
Sun 02:11:02 PM 40.6972 -101.0419 56° Northeast 464 534 33,600 532 Climbing Denver Center
Sun 02:12:04 PM 40.7781 -100.8814 56° Northeast 468 539 34,200 532 Climbing Denver Center
Sun 02:13:06 PM 40.8486 -100.7419 56° Northeast 474 545 34,700 387 Climbing Denver Center
Sun 02:14:08 PM 40.9236 -100.5908 57° Northeast 477 549 35,000 145 Climbing Denver Center
Sun 02:15:10 PM 40.9681 -100.3939 73° East 500 575 35,000 242 Level Denver Center
Sun 02:16:12 PM 41.0008 -100.2206 76° East 505 581 35,500 387 Climbing Denver Center
Sun 02:17:14 PM 41.0289 -100.0764 75° East 506 582 35,800 484 Climbing Denver Center
Sun 02:18:16 PM 41.0722 -99.8461 76° East 506 582 36,500 576 Climbing Denver Center
Sun 02:19:19 PM 41.1106 -99.6456 76° East 504 580 37,000 240 Climbing Denver Center
Sun 02:20:21 PM 41.1422 -99.4714 76° East 505 581 37,000  Level Denver Center
Sun 02:21:23 PM 41.1753 -99.2931 76° East 514 592 37,000  Level Denver Center
Sun 02:22:25 PM 41.2139 -99.0839 76° East 522 601 37,000  Level Denver Center
Sun 02:23:27 PM 41.2514 -98.8697 77° East 531 611 37,000  Level Denver Center
Sun 02:24:29 PM 41.2806 -98.7103 76° East 531 611 37,000  Level Denver Center
Sun 02:25:31 PM 41.3219 -98.4772 77° East 532 612 37,000  Level Denver Center
Sun 02:26:58 PM 41.3686 -98.2094 77° East 530 610 37,000  Level Minneapolis Center
Sun 02:28:00 PM 41.4039 -98.0058 77° East 530 610 37,000  Level Minneapolis Center
Sun 02:29:02 PM 41.4367 -97.8142 77° East 531 611 37,000  Level Minneapolis Center
Sun 02:30:03 PM 41.4683 -97.6231 77° East 528 608 37,000  Level Minneapolis Center
Sun 02:31:05 PM 41.5017 -97.4306 77° East 531 611 37,000  Level Minneapolis Center
Sun 02:32:07 PM 41.5328 -97.2386 78° East 531 611 37,000  Level Minneapolis Center
Sun 02:33:09 PM 41.5644 -97.0467 78° East 530 610 37,000  Level Minneapolis Center
Sun 02:34:11 PM 41.5942 -96.8528 78° East 531 611 37,000  Level Minneapolis Center
Sun 02:35:12 PM 41.6256 -96.6589 78° East 532 612 37,000  Level Minneapolis Center
Sun 02:36:14 PM 41.6619 -96.4256 78° East 532 612 37,000  Level Minneapolis Center
Sun 02:37:16 PM 41.6925 -96.2297 78° East 533 613 37,000  Level Minneapolis Center
Sun 02:38:18 PM 41.7219 -96.0336 79° East 533 613 37,000  Level Minneapolis Center
Sun 02:39:20 PM 41.7528 -95.8372 78° East 533 613 37,000  Level Minneapolis Center
Sun 02:40:22 PM 41.7825 -95.6411 78° East 534 615 37,000  Level Minneapolis Center
Sun 02:42:25 PM 41.8386 -95.2464 79° East 536 617 37,000  Level Minneapolis Center
Sun 02:43:27 PM 41.8661 -95.0497 79° East 536 617 37,000  Level Minneapolis Center
Sun 02:44:29 PM 41.8956 -94.8500 79° East 542 624 37,000  Level Minneapolis Center
Sun 02:45:31 PM 41.9300 -94.6108 79° East 542 624 37,000  Level Minneapolis Center
Sun 02:46:33 PM 41.9556 -94.4117 80° East 543 625 37,000  Level Minneapolis Center
Sun 02:47:35 PM 41.9831 -94.2108 79° East 545 627 37,000  Level Minneapolis Center
Sun 02:48:36 PM 42.0106 -94.0103 79° East 546 628 37,000  Level Minneapolis Center
Sun 02:49:38 PM 42.0386 -93.7989 80° East 546 628 37,000  Level Minneapolis Center
Sun 02:50:40 PM 42.0653 -93.5986 80° East 546 628 37,000  Level Minneapolis Center
Sun 02:51:42 PM 42.0914 -93.3972 80° East 548 631 37,000  Level Minneapolis Center
Sun 02:52:44 PM 42.1172 -93.1942 80° East 553 636 37,000  Level Minneapolis Center
Sun 02:53:45 PM 42.1419 -92.9897 81° East 555 639 37,000  Level Minneapolis Center
Sun 02:54:24 PM 42.1622 -92.8272 80° East 554 638 37,000  Level Chicago Center
Sun 02:55:25 PM 42.1872 -92.6217 81° East 557 641 37,000  Level Chicago Center
Sun 02:56:27 PM 42.2125 -92.4175 80° East 557 641 37,000  Level Chicago Center
Sun 02:57:30 PM 42.2361 -92.2111 81° East 561 646 37,000  Level Chicago Center
Sun 02:58:31 PM 42.2594 -92.0058 81° East 561 646 37,000  Level Chicago Center
Sun 02:59:33 PM 42.2886 -91.7589 81° East 563 648 37,000  Level Chicago Center
Sun 03:00:35 PM 42.3117 -91.5539 81° East 563 648 37,000  Level Chicago Center
Sun 03:01:37 PM 42.3342 -91.3475 82° East 564 649 37,000  Level Chicago Center
Sun 03:02:39 PM 42.3556 -91.1417 82° East 563 648 37,000  Level Chicago Center
Sun 03:03:41 PM 42.3819 -90.8908 82° East 568 654 37,000  Level Chicago Center
Sun 03:04:42 PM 42.4111 -90.6831 79° East 572 658 37,000  Level Chicago Center
Sun 03:05:44 PM 42.4714 -90.4867 67° East 573 659 37,000  Level Chicago Center
Sun 03:06:46 PM 42.5300 -90.2869 68° East 575 662 37,000  Level Chicago Center
Sun 03:07:47 PM 42.5897 -90.0861 68° East 578 665 37,000  Level Chicago Center
Sun 03:08:49 PM 42.6592 -89.8656 67° East 579 666 37,000  Level Chicago Center
Sun 03:09:51 PM 42.7186 -89.6631 68° East 580 667 37,000  Level Chicago Center
Sun 03:10:53 PM 42.7792 -89.4614 68° East 577 664 37,000  Level Chicago Center
Sun 03:11:54 PM 42.8383 -89.2581 68° East 580 667 37,000  Level Chicago Center
Sun 03:12:56 PM 42.9072 -89.0133 69° East 579 666 37,000  Level Chicago Center
Sun 03:13:58 PM 42.9667 -88.8083 68° East 584 672 37,000  Level Chicago Center
Sun 03:14:59 PM 43.0258 -88.6061 68° East 581 669 37,000  Level Chicago Center
Sun 03:16:01 PM 43.0831 -88.4039 69° East 579 666 37,000  Level Chicago Center
Sun 03:17:03 PM 43.1281 -88.1961 73° East 579 666 37,000 -49 Level Chicago Center
Sun 03:18:04 PM 43.1586 -87.9372 81° East 581 669 36,900 -585 Descending Chicago Center
Sun 03:19:06 PM 43.1861 -87.7178 80° East 589 678 35,800 -1,113 Descending Chicago Center
Sun 03:20:08 PM 43.2125 -87.4944 81° East 596 686 34,600 -1,171 Descending Chicago Center
Sun 03:21:09 PM 43.2422 -87.2497 80° East 604 695 33,400 -683 Descending Chicago Center
Sun 03:22:11 PM 43.2697 -87.0217 81° East 607 699 33,200 -195 Descending Chicago Center
Sun 03:23:12 PM 43.2936 -86.8028 81° East 584 672 33,000 -98 Descending Chicago Center
Sun 03:24:14 PM 43.3186 -86.5864 81° East 575 662 33,000  Level Chicago Center
Sun 03:25:16 PM 43.3428 -86.3633 81° East 586 674 33,000 -439 Level Chicago Center
Sun 03:26:17 PM 43.3669 -86.1394 81° East 589 678 32,100 -1,317 Descending Chicago Center
Sun 03:27:19 PM 43.3725 -85.9317 88° East 550 633 30,300 -1,024 Descending Chicago Center
Sun 03:28:20 PM 43.3417 -85.7436 103° East 511 588 30,000 -195 Descending Chicago Center
Sun 03:29:22 PM 43.3081 -85.5567 104° East 500 575 29,900 -976 Descending Chicago Center
Sun 03:30:23 PM 43.2739 -85.3667 104° East 507 583 28,000 -1,902 Descending Chicago Center
Sun 03:31:25 PM 43.2406 -85.1842 104° East 499 574 26,000 -2,049 Descending Chicago Center
Sun 03:32:26 PM 43.2014 -84.9756 104° East 476 548 23,800 -1,610 Descending Chicago Center
Sun 03:33:28 PM 43.1692 -84.8044 104° East 467 537 22,700 -1,415 Descending Chicago Center
Sun 03:34:29 PM 43.1353 -84.6256 104° East 481 554 20,900 -1,756 Descending Chicago Center
Sun 03:35:31 PM 43.1019 -84.4486 104° East 481 554 19,100 -1,871 Descending Chicago Center
Sun 03:36:02 PM 43.0822 -84.3475 105° East 465 535 18,000 -1,613 Descending Cleveland Center
Sun 03:37:04 PM 43.0533 -84.1975 105° East 440 506 16,600 -1,462 Descending Cleveland Center
Sun 03:37:20 PM 43.0422 -84.1469 107° East 424 488 16,100 -1,627 Descending Cleveland Center
Sun 03:38:03 PM 43.0219 -84.0381 104° East 422 486 15,000 -1,467 Descending Cleveland Center
Sun 03:38:05 PM 43.0228 -84.0414 289° West 427 491 15,000 -1,300 Level Cleveland Center
Sun 03:39:03 PM 42.9925 -83.8878 105° East 411 473 13,700 -1,258 Descending Cleveland Center
Sun 03:39:07 PM 42.9939 -83.8903 307° West 414 476 13,700 -1,091 Level Cleveland Center
Sun 03:40:09 PM 42.9261 -83.7867 132° Southeast 381 438 12,500 -1,238 Descending Cleveland Center
Sun 03:40:10 PM 42.9089 -83.7811 167° South 357 411 12,400 -492 Descending Cleveland Center
Sun 03:41:10 PM 42.8361 -83.7336 154° Southeast 356 410 12,000 -329 Descending Cleveland Center
Sun 03:41:23 PM 42.7989 -83.7133 158° South 345 397 12,000 -97 Level Cleveland Center
Sun 03:42:12 PM 42.7314 -83.6664 153° Southeast 353 406 11,900 -606 Descending Cleveland Center
Sun 03:43:12 PM 42.6628 -83.5825 138° Southeast 325 374 10,900 -968 Descending Cleveland Center
Sun 03:43:14 PM 42.6619 -83.5786 106° East 337 388 10,900 -1,377 Level Cleveland Center
Sun 03:44:13 PM 42.5997 -83.5053 139° Southeast 292 336 9,500 -1,475 Descending Cleveland Center
Sun 03:44:15 PM 42.5994 -83.5025 98° East 307 353 9,400 -1,406 Descending Cleveland Center
Sun 03:45:17 PM 42.5406 -83.4325 139° Southeast 285 328 8,000 -1,210 Descending Cleveland Center
Sun 03:46:19 PM 42.4836 -83.3669 140° Southeast 272 313 6,900 -1,125 Descending Cleveland Center
Sun 03:46:21 PM 42.4769 -83.3603 144° Southeast 252 290 6,800 -1,082 Descending Cleveland Center
Sun 03:47:20 PM 42.4292 -83.3039 139° Southeast 241 277 5,800 -984 Descending Cleveland Center
Sun 03:47:22 PM 42.4269 -83.3022 151° Southeast 222 255 5,800 -968 Level Cleveland Center
Sun 03:48:22 PM 42.3839 -83.2742 154° Southeast 209 241 4,800 -1,279 Descending Cleveland Center
Sun 03:48:23 PM 42.3725 -83.2747 182° South 201 231 4,500 -1,548 Descending Cleveland Center
Sun 03:49:24 PM 42.3292 -83.2906 195° South 209 241 3,200 -1,240 Descending Cleveland Center
Sun 03:50:24 PM 42.2783 -83.3267 208° Southwest 145 167 2,000 -968 Descending Cleveland Center
Sun 03:50:26 PM 42.2861 -83.3231 19° North 190 219 2,200 -787 Climbing Cleveland Center
Sun 03:51:25 PM 42.2450 -83.3528 208° Southwest 139 160 1,200 -984 Descending Cleveland Center
Sun 03:51:27 PM 42.2450 -83.3522 90° East 152 175 1,200 -375 Level Cleveland Center
Sun 03:52:29 PM 42.2131 -83.3778 211° Southwest 148 170 800 -387 Descending Cleveland Center

Login

Don't have an account? Register now (free) for customized features, flight alerts, and more!